Marietta, Pennsylvania
Current Conditions -  °F | °C
As of 10:53 PM on Friday 31 Oct 2014 (Local Time) from KLNS Reporting Station
Overcast Overcast  
Wind Chill: 44°   Ceiling: 3500
Heat Index: 47°   Visibility: 10mi
Dew Point: 36°   Wind: 6mph
Humidity: 66%   Direction: 350°N
Pressure: 29.85"   Gusts: NA
Location:  40.06°N, 76.55°W
Report Text: KLNS 010253Z AUTO 35005KT 10SM BKN035 OVC043 08/02 A2985 RMK AO2 SLP111 T00830022 58011
Loading
Personal Weather Stations






























Interactive Weather Map
Tropical Storm Tracking
New forecast layout! Learn more

10-Day Weather Forecast

Advertisements
Track Severe Weather on mobile